createdAt,value
2016-11-13T19:40:55.396Z,965.96
2016-11-13T19:41:55.375Z,965.99
2016-11-13T19:42:55.556Z,966.01
2016-11-13T19:43:55.338Z,966.03
2016-11-13T19:44:55.323Z,966.05
2016-11-13T19:45:55.298Z,966.04
2016-11-13T19:46:55.275Z,966.09
2016-11-13T19:47:55.261Z,966.07
2016-11-13T19:48:55.241Z,966.08
2016-11-13T19:49:55.219Z,966.09
2016-11-13T19:50:55.200Z,966.08
2016-11-13T19:51:55.184Z,966.12
2016-11-13T19:52:55.164Z,966.12
2016-11-13T19:53:55.144Z,966.11
2016-11-13T19:54:55.122Z,966.16
2016-11-13T19:55:55.113Z,966.14
2016-11-13T19:56:55.087Z,966.16
2016-11-13T19:57:55.065Z,966.17
2016-11-13T19:58:55.047Z,966.16
2016-11-13T19:59:55.052Z,966.17
2016-11-13T20:00:55.007Z,966.18
2016-11-13T20:01:54.989Z,966.15
2016-11-13T20:02:54.978Z,966.19
2016-11-13T20:03:54.950Z,966.16
2016-11-13T20:04:54.943Z,966.18
2016-11-13T20:05:54.920Z,966.22
2016-11-13T20:06:54.896Z,966.22
2016-11-13T20:07:54.873Z,966.23
2016-11-13T20:08:54.854Z,966.24
2016-11-13T20:09:54.859Z,966.31
2016-11-13T20:10:54.816Z,966.27
2016-11-13T20:11:54.800Z,966.33
2016-11-13T20:12:54.778Z,966.33
2016-11-13T20:13:54.757Z,966.37
2016-11-13T20:14:54.742Z,966.32
2016-11-13T20:15:54.721Z,966.36
2016-11-13T20:16:54.701Z,966.36
2016-11-13T20:17:54.683Z,966.31
2016-11-13T20:18:54.664Z,966.33
2016-11-13T20:19:54.660Z,966.34
2016-11-13T20:20:54.623Z,966.36
2016-11-13T20:21:54.616Z,966.42
2016-11-13T20:22:54.589Z,966.36
2016-11-13T20:23:54.569Z,966.4
2016-11-13T20:24:54.622Z,966.43
2016-11-13T20:25:54.526Z,966.44
2016-11-13T20:27:54.490Z,966.41
2016-11-13T20:28:54.471Z,966.4
2016-11-13T20:29:54.451Z,966.42
2016-11-13T20:30:54.428Z,966.46
2016-11-13T20:31:54.418Z,966.49
2016-11-13T20:32:54.390Z,966.46
2016-11-13T20:33:54.370Z,966.47
2016-11-13T20:34:54.354Z,966.52
2016-11-13T20:35:54.333Z,966.51
2016-11-13T20:36:54.319Z,966.52
2016-11-13T20:37:54.373Z,966.47
2016-11-13T20:38:54.317Z,966.54
2016-11-13T20:39:54.256Z,966.52
2016-11-13T20:40:54.236Z,966.5
2016-11-13T20:41:54.224Z,966.48
2016-11-13T20:42:54.232Z,966.53
2016-11-13T20:43:54.217Z,966.46
2016-11-13T20:44:54.164Z,966.52
2016-11-13T20:45:54.142Z,966.51
2016-11-13T20:46:54.121Z,966.54
2016-11-13T20:47:54.098Z,966.52
2016-11-13T20:48:54.084Z,966.57
2016-11-13T20:49:54.066Z,966.58
2016-11-13T20:50:54.039Z,966.52
2016-11-13T20:51:54.021Z,966.53
2016-11-13T20:52:54.006Z,966.54
2016-11-13T20:53:53.988Z,966.57
2016-11-13T20:54:53.969Z,966.53
2016-11-13T20:55:53.943Z,966.55
2016-11-13T20:56:53.934Z,966.6
2016-11-13T20:57:53.911Z,966.6
2016-11-13T20:58:53.889Z,966.55
2016-11-13T20:59:53.866Z,966.55
2016-11-13T21:00:53.853Z,966.6
2016-11-13T21:01:53.827Z,966.56
2016-11-13T21:02:53.807Z,966.56
2016-11-13T21:03:53.795Z,966.51
2016-11-13T21:04:53.782Z,966.52
2016-11-13T21:05:53.750Z,966.6
2016-11-13T21:06:53.733Z,966.56
2016-11-13T21:07:53.728Z,966.58
2016-11-13T21:08:53.704Z,966.59
2016-11-13T21:09:53.676Z,966.6
2016-11-13T21:10:53.653Z,966.63
2016-11-13T21:11:53.638Z,966.61
2016-11-13T21:12:53.620Z,966.59
2016-11-13T21:14:53.575Z,966.63
2016-11-13T21:15:53.598Z,966.59
2016-11-13T21:16:53.599Z,966.62
2016-11-13T21:17:53.519Z,966.55
2016-11-13T21:18:53.498Z,966.61
2016-11-13T21:19:53.479Z,966.63
2016-11-13T21:20:53.512Z,966.6
2016-11-13T21:21:53.443Z,966.65
2016-11-13T21:22:53.419Z,966.56
2016-11-13T21:23:53.401Z,966.6
2016-11-13T21:24:53.381Z,966.57
2016-11-13T21:25:53.362Z,966.57
2016-11-13T21:26:53.346Z,966.64
2016-11-13T21:27:53.324Z,966.63
2016-11-13T21:28:53.358Z,966.66
2016-11-13T21:29:53.286Z,966.62
2016-11-13T21:30:53.270Z,966.7
2016-11-13T21:31:53.251Z,966.66
2016-11-13T21:32:53.227Z,966.68
2016-11-13T21:33:53.212Z,966.62
2016-11-13T21:34:53.209Z,966.69
2016-11-13T21:35:53.175Z,966.73
2016-11-13T21:36:53.153Z,966.74
2016-11-13T21:37:53.133Z,966.71
2016-11-13T21:38:53.120Z,966.69
2016-11-13T21:39:53.099Z,966.67
2016-11-13T21:40:53.075Z,966.71
2016-11-13T21:41:53.058Z,966.71
2016-11-13T21:42:53.038Z,966.7
2016-11-13T21:43:53.018Z,966.69
2016-11-13T21:44:53.000Z,966.69
2016-11-13T21:45:52.980Z,966.74
2016-11-13T21:46:52.969Z,966.76
2016-11-13T21:47:52.950Z,966.81
2016-11-13T21:48:52.924Z,966.79
2016-11-13T21:49:52.918Z,966.83
2016-11-13T21:50:52.887Z,966.82
2016-11-13T21:51:52.869Z,966.81
2016-11-13T21:52:52.847Z,966.87
2016-11-13T21:53:52.828Z,966.94
2016-11-13T21:54:52.809Z,966.9
2016-11-13T21:55:52.793Z,966.91
2016-11-13T21:56:52.773Z,966.94
2016-11-13T21:57:52.752Z,966.96
2016-11-13T21:58:52.733Z,966.92
2016-11-13T21:59:52.725Z,966.99
2016-11-13T22:00:52.696Z,966.98
2016-11-13T22:01:52.676Z,966.99
2016-11-13T22:02:52.657Z,967.03
2016-11-13T22:03:52.660Z,967.05
2016-11-13T22:04:52.622Z,967.13
2016-11-13T22:05:52.600Z,967.14
2016-11-13T22:06:52.583Z,967.15
2016-11-13T22:07:52.564Z,967.15
2016-11-13T22:08:52.547Z,967.18
2016-11-13T22:09:52.524Z,967.19
2016-11-13T22:10:52.545Z,967.17
2016-11-13T22:11:52.490Z,967.19
2016-11-13T22:12:52.477Z,967.2
2016-11-13T22:13:52.451Z,967.19
2016-11-13T22:14:52.430Z,967.16
2016-11-13T22:15:52.410Z,967.18
2016-11-13T22:16:52.405Z,967.19
2016-11-13T22:17:52.380Z,967.21
2016-11-13T22:18:52.361Z,967.2
2016-11-13T22:19:52.335Z,967.22
2016-11-13T22:20:52.314Z,967.26
2016-11-13T22:21:52.297Z,967.26
2016-11-13T22:22:52.283Z,967.2
2016-11-13T22:23:52.260Z,967.22
2016-11-13T22:24:52.246Z,967.22
2016-11-13T22:25:52.220Z,967.24
2016-11-13T22:26:52.206Z,967.22
2016-11-13T22:27:52.182Z,967.25
2016-11-13T22:28:52.163Z,967.22
2016-11-13T22:29:52.145Z,967.29
2016-11-13T22:30:52.134Z,967.22
2016-11-13T22:31:52.106Z,967.27
2016-11-13T22:32:52.098Z,967.29
2016-11-13T22:33:52.069Z,967.26
2016-11-13T22:34:52.048Z,967.27
2016-11-13T22:35:52.072Z,967.29
2016-11-13T22:36:52.013Z,967.26
2016-11-13T22:37:51.993Z,967.23
2016-11-13T22:38:51.975Z,967.29
2016-11-13T22:39:51.959Z,967.26
2016-11-13T22:40:51.938Z,967.27
2016-11-13T22:41:51.916Z,967.26
2016-11-13T22:42:51.901Z,967.28
2016-11-13T22:43:51.879Z,967.29
2016-11-13T22:44:51.861Z,967.32
2016-11-13T22:45:51.841Z,967.26
2016-11-13T22:46:51.820Z,967.33
2016-11-13T22:47:51.806Z,967.29
2016-11-13T22:48:51.781Z,967.35
2016-11-13T22:49:51.769Z,967.32
2016-11-13T22:50:51.748Z,967.31
2016-11-13T22:51:51.724Z,967.31
2016-11-13T22:52:51.706Z,967.34
2016-11-13T22:53:51.691Z,967.29
2016-11-13T22:54:51.668Z,967.3
2016-11-13T22:55:51.648Z,967.28
2016-11-13T22:56:51.635Z,967.28
2016-11-13T22:57:51.612Z,967.29
2016-11-13T22:58:51.594Z,967.26
2016-11-13T22:59:51.572Z,967.26
2016-11-13T23:00:51.557Z,967.21
2016-11-13T23:01:51.537Z,967.2
2016-11-13T23:02:51.516Z,967.22
2016-11-13T23:03:51.496Z,967.17
2016-11-13T23:04:51.481Z,967.17
2016-11-13T23:05:51.459Z,967.14
2016-11-13T23:06:51.437Z,967.09
2016-11-13T23:07:51.419Z,967.14
2016-11-13T23:08:51.398Z,967.13
2016-11-13T23:09:51.380Z,967.12
2016-11-13T23:10:51.360Z,967.16
2016-11-13T23:11:51.343Z,967.17
2016-11-13T23:12:51.326Z,967.09
2016-11-13T23:13:51.306Z,967.13
2016-11-13T23:14:51.282Z,967.17
2016-11-13T23:15:51.268Z,967.15
2016-11-13T23:16:51.244Z,967.15
2016-11-13T23:17:51.232Z,967.18
2016-11-13T23:18:51.207Z,967.17
2016-11-13T23:19:51.191Z,967.19
2016-11-13T23:20:51.167Z,967.18
2016-11-13T23:21:51.145Z,967.22
2016-11-13T23:22:51.128Z,967.19
2016-11-13T23:23:51.115Z,967.23
2016-11-13T23:24:51.221Z,967.24
2016-11-13T23:25:51.078Z,967.28
2016-11-13T23:26:51.053Z,967.29
2016-11-13T23:27:51.035Z,967.28
2016-11-13T23:28:51.015Z,967.31
2016-11-13T23:29:50.993Z,967.35
2016-11-13T23:30:50.984Z,967.3
2016-11-13T23:31:50.956Z,967.28
2016-11-13T23:32:50.941Z,967.31
2016-11-13T23:33:50.918Z,967.3
2016-11-13T23:34:50.900Z,967.32
2016-11-13T23:35:50.879Z,967.34
2016-11-13T23:36:50.858Z,967.31
2016-11-13T23:37:50.837Z,967.36
2016-11-13T23:38:50.821Z,967.37
2016-11-13T23:39:50.800Z,967.34
2016-11-13T23:40:50.781Z,967.41
2016-11-13T23:41:50.761Z,967.33
2016-11-13T23:42:50.744Z,967.32
2016-11-13T23:43:50.722Z,967.4
2016-11-13T23:44:50.708Z,967.32
2016-11-13T23:45:50.683Z,967.33
2016-11-13T23:46:50.663Z,967.34
2016-11-13T23:47:50.643Z,967.36
2016-11-13T23:48:50.625Z,967.32
2016-11-13T23:49:50.608Z,967.38
2016-11-13T23:50:50.588Z,967.37
2016-11-13T23:51:50.573Z,967.39
2016-11-13T23:52:50.545Z,967.41
2016-11-13T23:53:50.526Z,967.43
2016-11-13T23:54:50.510Z,967.44
2016-11-13T23:55:50.491Z,967.44
2016-11-13T23:56:50.469Z,967.46
2016-11-13T23:57:50.449Z,967.46
2016-11-13T23:58:50.432Z,967.47
2016-11-13T23:59:50.410Z,967.47
